Time;durP1;ratioP1;P1;durP2;ratioP2;P2;SDS_P1;SDS_P2;PMS_P1;PMS_P2;Temp;Humidity;BMP_temperature;BMP_pressure;BME280_temperature;BME280_humidity;BME280_pressure;Samples;Min_cycle;Max_cycle;Signal;HPM_P1;HPM_P2
2024/01/19 00:01:28;;;;;;;7.05;2.78;;;;;;;-0.80;95.58;100128.38;5169094;28;20168;-74
2024/01/19 00:03:59;;;;;;;5.95;2.88;;;;;;;-0.93;96.05;100136.91;5169235;28;20030;-75
2024/01/19 00:06:29;;;;;;;8.80;3.22;;;;;;;-0.93;96.64;100139.47;5163936;28;20030;-74
2024/01/19 00:09:00;;;;;;;6.53;2.30;;;;;;;-0.97;96.51;100130.03;5174095;28;20038;-74
2024/01/19 00:11:30;;;;;;;11.07;2.88;;;;;;;-0.91;96.15;100125.78;5162835;28;20121;-74
2024/01/19 00:14:00;;;;;;;10.98;3.83;;;;;;;-0.94;95.37;100135.16;5160403;28;20035;-74
2024/01/19 00:16:31;;;;;;;6.35;3.15;;;;;;;-0.98;95.59;100147.13;5166287;28;20052;-74
2024/01/19 00:19:01;;;;;;;10.43;3.83;;;;;;;-1.00;95.97;100130.03;5173657;28;20026;-75
2024/01/19 00:21:31;;;;;;;7.80;3.22;;;;;;;-0.95;96.03;100143.72;5177460;28;20446;-74
2024/01/19 00:24:02;;;;;;;9.88;3.00;;;;;;;-0.84;95.48;100142.91;5177326;28;20416;-75
2024/01/19 00:26:32;;;;;;;7.63;3.08;;;;;;;-0.91;95.59;100145.47;5176156;28;20114;-74
2024/01/19 00:29:02;;;;;;;7.88;2.72;;;;;;;-0.85;95.65;100150.59;5172401;28;20373;-74
2024/01/19 00:31:34;;;;;;;11.10;3.20;;;;;;;-0.76;94.92;100151.47;5174716;28;20025;-75
2024/01/19 00:34:04;;;;;;;7.00;3.05;;;;;;;-0.91;93.84;100155.72;5170938;28;20076;-75
2024/01/19 00:36:35;;;;;;;6.93;2.80;;;;;;;-0.90;95.51;100157.44;5175342;28;20116;-75
2024/01/19 00:39:05;;;;;;;7.78;3.05;;;;;;;-1.01;94.92;100156.53;5174622;28;20022;-75
2024/01/19 00:41:35;;;;;;;9.52;3.42;;;;;;;-0.99;95.59;100158.25;5171689;28;20110;-75
2024/01/19 00:44:06;;;;;;;7.57;3.42;;;;;;;-0.94;95.64;100164.25;5173510;28;20026;-75
2024/01/19 00:46:36;;;;;;;11.50;3.10;;;;;;;-0.98;96.01;100169.34;5172952;28;20049;-74
2024/01/19 00:49:06;;;;;;;15.95;3.38;;;;;;;-1.02;95.53;100172.75;5179531;28;20243;-73
2024/01/19 00:51:36;;;;;;;10.27;3.15;;;;;;;-0.99;95.96;100181.31;5178735;28;20164;-74
2024/01/19 00:54:07;;;;;;;6.20;2.80;;;;;;;-0.97;95.81;100173.63;5176065;28;20132;-72
2024/01/19 00:56:38;;;;;;;7.45;2.60;;;;;;;-0.86;95.15;100177.94;5171154;28;20030;-74
2024/01/19 00:59:08;;;;;;;10.10;2.50;;;;;;;-0.75;94.82;100178.00;5175327;28;20025;-72
2024/01/19 01:01:38;;;;;;;10.30;2.45;;;;;;;-0.72;94.35;100181.41;5172221;28;20113;-74
2024/01/19 01:04:08;;;;;;;11.23;2.42;;;;;;;-0.67;94.10;100186.56;5175527;28;20051;-72
2024/01/19 01:06:39;;;;;;;6.60;2.72;;;;;;;-0.57;93.33;100180.59;5172712;28;20034;-74
2024/01/19 01:09:09;;;;;;;9.27;2.45;;;;;;;-0.55;92.77;100189.16;5171804;28;20564;-73
2024/01/19 01:11:39;;;;;;;4.80;2.15;;;;;;;-0.57;92.43;100193.44;5167622;28;20101;-74
2024/01/19 01:14:10;;;;;;;5.95;2.10;;;;;;;-0.52;92.88;100195.13;5186603;28;20026;-72
2024/01/19 01:16:40;;;;;;;8.10;2.38;;;;;;;-0.56;92.34;100192.56;5170879;28;20406;-74
2024/01/19 01:19:10;;;;;;;10.38;2.53;;;;;;;-0.46;92.08;100200.28;5164674;28;20025;-72
2024/01/19 01:21:41;;;;;;;5.97;2.70;;;;;;;-0.40;91.52;100204.59;5169297;28;20376;-73
2024/01/19 01:24:11;;;;;;;7.45;2.38;;;;;;;-0.39;91.18;100199.44;5170171;28;20399;-72
2024/01/19 01:26:41;;;;;;;6.68;2.45;;;;;;;-0.32;91.10;100205.44;5171283;28;20598;-73
2024/01/19 01:29:11;;;;;;;8.55;2.30;;;;;;;-0.36;90.70;100203.72;5169805;28;20030;-73
2024/01/19 01:31:42;;;;;;;9.80;2.72;;;;;;;-0.37;90.39;100207.16;5168725;28;20042;-73
2024/01/19 01:34:12;;;;;;;8.43;2.85;;;;;;;-0.34;90.50;100209.72;5168112;28;20092;-73
2024/01/19 01:36:42;;;;;;;9.77;3.15;;;;;;;-0.34;90.56;100208.03;5169313;28;20036;-73
2024/01/19 01:39:13;;;;;;;6.78;2.50;;;;;;;-0.30;90.41;100214.00;5167211;28;20026;-73
2024/01/19 01:41:44;;;;;;;10.70;3.33;;;;;;;-0.25;89.73;100218.28;5172482;28;20135;-73
2024/01/19 01:44:15;;;;;;;8.05;2.78;;;;;;;-0.25;89.72;100217.47;5174289;28;20030;-74
2024/01/19 01:46:45;;;;;;;8.63;3.20;;;;;;;-0.23;89.60;100218.31;5176402;28;20034;-74
2024/01/19 01:49:16;;;;;;;8.48;3.05;;;;;;;-0.19;89.85;100226.00;5172815;28;20049;-73
2024/01/19 01:51:47;;;;;;;8.27;3.08;;;;;;;-0.30;89.18;100230.28;5175048;28;20034;-74
2024/01/19 01:54:18;;;;;;;10.05;3.45;;;;;;;-0.36;89.62;100226.84;5171031;28;20037;-74
2024/01/19 01:56:48;;;;;;;12.70;3.63;;;;;;;-0.34;89.84;100230.25;5169163;28;20340;-74
2024/01/19 01:59:19;;;;;;;13.98;4.00;;;;;;;-0.38;90.03;100231.94;5174006;28;20455;-74
2024/01/19 02:01:49;;;;;;;9.18;3.70;;;;;;;-0.40;90.57;100232.81;5169539;28;20061;-74
2024/01/19 02:04:20;;;;;;;10.50;4.10;;;;;;;-0.38;89.98;100236.25;5171153;28;20483;-74
2024/01/19 02:06:50;;;;;;;15.32;5.07;;;;;;;-0.44;90.91;100237.06;5169665;28;20037;-74
2024/01/19 02:09:20;;;;;;;9.63;4.13;;;;;;;-0.41;91.07;100233.69;5168787;28;20041;-74
2024/01/19 02:11:52;;;;;;;13.40;4.60;;;;;;;-0.43;90.40;100230.22;5168465;28;20273;-73
2024/01/19 02:14:22;;;;;;;11.45;3.47;;;;;;;-0.37;90.81;100227.69;5167646;28;20448;-74
2024/01/19 02:16:52;;;;;;;14.10;4.18;;;;;;;-0.36;90.66;100234.53;5169286;28;20116;-74
2024/01/19 02:19:22;;;;;;;9.35;4.18;;;;;;;-0.25;90.29;100235.44;5168909;28;20116;-74
2024/01/19 02:21:53;;;;;;;14.68;4.15;;;;;;;-0.26;90.04;100237.13;5169911;28;20507;-74
2024/01/19 02:24:23;;;;;;;11.05;4.53;;;;;;;-0.17;89.46;100241.41;5172089;28;20037;-73
2024/01/19 02:26:55;;;;;;;11.57;4.00;;;;;;;-0.23;89.52;100237.13;5172340;28;20472;-74
2024/01/19 02:29:25;;;;;;;8.85;3.60;;;;;;;-0.22;89.46;100243.97;5172054;28;20420;-74
2024/01/19 02:31:56;;;;;;;9.63;3.67;;;;;;;-0.16;89.47;100250.84;5168063;28;20073;-74
2024/01/19 02:34:26;;;;;;;12.35;3.88;;;;;;;-0.19;88.90;100233.69;5171932;28;20372;-73
2024/01/19 02:36:56;;;;;;;9.00;3.65;;;;;;;-0.07;88.09;100250.84;5171454;28;20518;-74
2024/01/19 02:39:27;;;;;;;10.52;3.95;;;;;;;-0.11;88.46;100251.69;5173639;28;20030;-74
2024/01/19 02:41:57;;;;;;;8.98;3.92;;;;;;;-0.14;88.35;100243.97;5174106;28;20391;-73
2024/01/19 02:44:27;;;;;;;8.00;4.13;;;;;;;-0.08;88.22;100256.84;5169955;28;20101;-72
2024/01/19 02:46:57;;;;;;;10.55;4.18;;;;;;;-0.06;87.40;100252.56;5174936;28;20084;-73
2024/01/19 02:49:28;;;;;;;10.40;4.05;;;;;;;-0.03;87.34;100250.00;5174178;28;20032;-74
2024/01/19 02:51:59;;;;;;;15.32;3.72;;;;;;;0.02;87.68;100256.88;5172463;28;20034;-73
2024/01/19 02:54:29;;;;;;;9.32;3.92;;;;;;;-0.03;87.48;100257.69;5175217;28;20034;-72
2024/01/19 02:57:00;;;;;;;9.43;4.20;;;;;;;-0.06;87.65;100270.53;5174235;28;20482;-74
2024/01/19 02:59:30;;;;;;;7.03;3.70;;;;;;;0.00;87.86;100263.72;5172314;28;20479;-73
2024/01/19 03:02:00;;;;;;;9.05;4.22;;;;;;;0.03;87.55;100264.56;5167666;28;20112;-73
2024/01/19 03:04:31;;;;;;;7.32;4.18;;;;;;;0.04;87.72;100276.53;5167030;28;20340;-74
2024/01/19 03:07:01;;;;;;;7.75;3.75;;;;;;;-0.02;87.86;100271.41;5175637;28;20025;-73
2024/01/19 03:09:31;;;;;;;8.45;4.07;;;;;;;-0.05;88.03;100282.53;5173467;28;20125;-74
2024/01/19 03:12:02;;;;;;;11.35;4.95;;;;;;;-0.05;87.54;100272.25;5168974;28;20037;-73
2024/01/19 03:14:33;;;;;;;7.47;4.10;;;;;;;-0.05;87.79;100278.22;5170948;28;20490;-74
2024/01/19 03:17:04;;;;;;;10.45;4.25;;;;;;;-0.08;87.65;100273.09;5170409;28;20160;-74
2024/01/19 03:19:35;;;;;;;11.50;4.43;;;;;;;-0.05;87.62;100278.22;5169849;28;20503;-74
2024/01/19 03:22:05;;;;;;;9.57;4.55;;;;;;;-0.12;87.87;100273.94;5169239;28;20026;-73
2024/01/19 03:24:36;;;;;;;10.85;5.03;;;;;;;-0.10;87.36;100282.50;5175142;28;20033;-74
2024/01/19 03:27:06;;;;;;;10.88;4.57;;;;;;;-0.10;88.22;100281.63;5171321;28;20037;-74
2024/01/19 03:29:36;;;;;;;12.38;5.15;;;;;;;-0.17;88.43;100275.66;5174861;28;20034;-74
2024/01/19 03:32:06;;;;;;;10.13;4.43;;;;;;;-0.08;88.29;100282.53;5173006;28;20128;-73
2024/01/19 03:34:37;;;;;;;11.80;5.13;;;;;;;-0.05;88.30;100282.53;5175018;28;20399;-73
2024/01/19 03:37:07;;;;;;;13.27;4.68;;;;;;;-0.06;88.37;100276.53;5170600;28;20034;-74
2024/01/19 03:39:38;;;;;;;9.18;4.78;;;;;;;0.07;87.90;100276.53;5173585;28;20104;-73
2024/01/19 03:42:08;;;;;;;11.60;5.03;;;;;;;0.19;87.61;100278.28;5170343;28;20026;-74
2024/01/19 03:44:40;;;;;;;10.13;4.97;;;;;;;0.15;87.71;100279.09;5173675;28;20061;-73
2024/01/19 03:47:10;;;;;;;14.75;5.45;;;;;;;0.08;88.00;100280.81;5170384;28;20078;-73
2024/01/19 03:49:41;;;;;;;12.55;5.82;;;;;;;0.23;88.43;100273.13;5174444;28;20411;-73
2024/01/19 03:52:11;;;;;;;12.27;5.63;;;;;;;0.28;87.73;100280.84;5171518;28;20034;-73
2024/01/19 03:54:41;;;;;;;11.95;5.80;;;;;;;0.26;87.90;100283.44;5175237;28;20018;-73
2024/01/19 03:57:12;;;;;;;11.07;5.63;;;;;;;0.27;88.17;100277.44;5173192;28;20085;-74
2024/01/19 03:59:42;;;;;;;15.18;5.97;;;;;;;0.23;88.29;100280.84;5165884;28;20033;-73
2024/01/19 04:02:13;;;;;;;13.68;6.10;;;;;;;0.27;87.95;100279.13;5170336;28;20039;-73
2024/01/19 04:04:43;;;;;;;13.98;5.82;;;;;;;0.30;88.17;100284.25;5172369;28;20112;-74
2024/01/19 04:07:14;;;;;;;14.88;6.07;;;;;;;0.26;88.11;100283.44;5171991;28;20050;-74
2024/01/19 04:09:44;;;;;;;12.75;6.03;;;;;;;0.10;89.14;100286.84;5174096;28;20036;-73
2024/01/19 04:12:16;;;;;;;15.60;6.97;;;;;;;-0.02;89.81;100285.94;5170751;28;20030;-74
2024/01/19 04:14:47;;;;;;;15.98;7.00;;;;;;;-0.04;90.11;100284.25;5171555;28;20481;-74
2024/01/19 04:17:17;;;;;;;15.00;6.55;;;;;;;0.05;89.98;100285.94;5170726;28;20050;-74
2024/01/19 04:19:47;;;;;;;16.80;7.53;;;;;;;0.00;89.99;100285.09;5169866;28;20503;-73
2024/01/19 04:22:18;;;;;;;15.27;7.13;;;;;;;-0.11;90.93;100285.06;5172222;28;20030;-74
2024/01/19 04:24:48;;;;;;;13.90;7.10;;;;;;;-0.09;90.71;100296.19;5167011;28;20026;-73
2024/01/19 04:27:18;;;;;;;16.52;6.63;;;;;;;-0.12;91.37;100303.88;5169485;28;20034;-73
2024/01/19 04:29:49;;;;;;;15.98;6.95;;;;;;;-0.18;91.22;100303.88;5173946;28;20503;-74
2024/01/19 04:32:20;;;;;;;14.43;6.63;;;;;;;-0.15;91.60;100304.75;5169047;28;20052;-74
2024/01/19 04:34:50;;;;;;;17.92;7.07;;;;;;;-0.17;91.83;100314.16;5167870;28;20034;-74
2024/01/19 04:37:21;;;;;;;16.80;7.18;;;;;;;-0.08;90.97;100318.47;5173399;28;20026;-73
2024/01/19 04:39:51;;;;;;;14.93;7.40;;;;;;;-0.08;90.80;100308.22;5172087;28;20018;-73
2024/01/19 04:42:21;;;;;;;12.82;6.53;;;;;;;-0.16;91.12;100318.44;5170059;28;20095;-73
2024/01/19 04:44:51;;;;;;;12.00;6.50;;;;;;;-0.06;91.30;100321.91;5170536;28;20490;-74
2024/01/19 04:47:22;;;;;;;16.77;7.18;;;;;;;-0.11;91.28;100313.31;5169796;28;20030;-73
2024/01/19 04:49:52;;;;;;;13.30;6.88;;;;;;;-0.14;90.65;100308.16;5168326;28;20037;-73
2024/01/19 04:52:22;;;;;;;14.57;6.53;;;;;;;-0.12;90.59;100316.72;5169531;28;20026;-73
2024/01/19 04:54:53;;;;;;;14.43;6.57;;;;;;;-0.17;91.43;100306.47;5169653;28;20546;-73
2024/01/19 04:57:23;;;;;;;13.20;6.32;;;;;;;-0.10;92.56;100310.75;5165613;28;20026;-73
2024/01/19 04:59:53;;;;;;;12.88;6.60;;;;;;;-0.09;92.55;100316.72;5164277;28;20022;-73
2024/01/19 05:02:24;;;;;;;13.73;6.60;;;;;;;-0.06;93.28;100327.03;5170234;28;20104;-74
2024/01/19 05:04:54;;;;;;;13.88;7.13;;;;;;;-0.10;94.37;100328.72;5169171;28;20029;-73
2024/01/19 05:07:26;;;;;;;17.83;6.85;;;;;;;-0.08;95.45;100334.72;5176230;28;20029;-73
2024/01/19 05:09:57;;;;;;;12.20;6.75;;;;;;;-0.13;96.17;100341.56;5175736;28;20029;-73
2024/01/19 05:12:27;;;;;;;14.95;7.30;;;;;;;-0.14;96.29;100344.09;5174352;28;20026;-74
2024/01/19 05:14:58;;;;;;;17.23;6.93;;;;;;;-0.17;96.43;100349.25;5176033;28;20115;-73
2024/01/19 05:17:28;;;;;;;13.85;7.18;;;;;;;-0.26;97.24;100339.78;5177124;28;20037;-73
2024/01/19 05:19:58;;;;;;;13.95;7.60;;;;;;;-0.29;96.74;100333.78;5174541;28;20038;-73
2024/01/19 05:22:29;;;;;;;16.67;7.50;;;;;;;-0.28;96.82;100340.63;5172462;28;20117;-73
2024/01/19 05:24:59;;;;;;;17.00;7.95;;;;;;;-0.35;96.50;100338.91;5172884;28;20033;-74
2024/01/19 05:27:29;;;;;;;17.73;8.18;;;;;;;-0.36;95.93;100345.72;5177131;28;20210;-74
2024/01/19 05:30:00;;;;;;;14.63;7.38;;;;;;;-0.27;95.18;100358.63;5169058;28;20057;-73
2024/01/19 05:32:30;;;;;;;18.40;7.68;;;;;;;-0.32;94.49;100356.88;5169007;28;20796;-74
2024/01/19 05:35:00;;;;;;;14.65;8.02;;;;;;;-0.39;94.64;100361.13;5172447;28;20037;-74
2024/01/19 05:37:31;;;;;;;15.02;7.82;;;;;;;-0.28;94.07;100366.31;5173690;28;20052;-74
2024/01/19 05:40:01;;;;;;;15.60;7.35;;;;;;;-0.41;93.86;100367.13;5173777;28;20025;-74
2024/01/19 05:42:31;;;;;;;16.50;7.80;;;;;;;-0.29;94.20;100369.72;5176999;28;20600;-73
2024/01/19 05:45:03;;;;;;;17.15;7.85;;;;;;;-0.34;93.72;100363.72;5175234;28;20245;-74
2024/01/19 05:47:35;;;;;;;17.38;7.65;;;;;;;-0.35;94.08;100365.41;5176350;28;20092;-72
2024/01/19 05:50:05;;;;;;;13.15;7.18;;;;;;;-0.39;94.20;100363.69;5174351;28;20041;-74
2024/01/19 05:52:36;;;;;;;18.20;7.38;;;;;;;-0.34;94.19;100366.28;5174607;28;20022;-74
2024/01/19 05:55:08;;;;;;;13.18;6.93;;;;;;;-0.37;94.49;100371.41;5172648;28;20037;-74
2024/01/19 05:57:38;;;;;;;12.85;6.95;;;;;;;-0.47;94.78;100369.63;5167188;28;20046;-74
2024/01/19 06:00:09;;;;;;;17.00;7.68;;;;;;;-0.49;95.83;100367.09;5171078;28;20316;-73
2024/01/19 06:02:39;;;;;;;17.90;7.18;;;;;;;-0.39;95.83;100383.38;5168427;28;20026;-73
2024/01/19 06:05:10;;;;;;;15.18;7.43;;;;;;;-0.41;95.50;100375.66;5169199;28;20034;-73
2024/01/19 06:07:40;;;;;;;18.90;7.80;;;;;;;-0.48;95.56;100378.19;5169044;28;20038;-73
2024/01/19 06:10:11;;;;;;;16.67;7.90;;;;;;;-0.40;95.85;100391.94;5172664;28;20029;-74
2024/01/19 06:12:41;;;;;;;17.05;7.90;;;;;;;-0.42;95.46;100401.34;5175067;28;20024;-74
2024/01/19 06:15:11;;;;;;;14.82;6.93;;;;;;;-0.46;95.45;100397.00;5172701;28;20310;-74
2024/01/19 06:17:42;;;;;;;19.58;7.45;;;;;;;-0.45;95.82;100402.16;5175758;28;20029;-73
2024/01/19 06:20:12;;;;;;;15.70;7.70;;;;;;;-0.49;96.31;100399.56;5174663;28;20034;-73
2024/01/19 06:22:43;;;;;;;13.57;7.03;;;;;;;-0.42;96.38;100403.91;5173831;28;20033;-73
2024/01/19 06:25:14;;;;;;;19.77;8.10;;;;;;;-0.57;96.56;100406.38;5171755;28;20112;-74
2024/01/19 06:27:44;;;;;;;15.82;7.70;;;;;;;-0.47;97.10;100400.44;5167835;28;20120;-74
2024/01/19 06:30:15;;;;;;;16.00;7.40;;;;;;;-0.60;96.71;100414.03;5173596;28;20026;-74
2024/01/19 06:32:45;;;;;;;22.38;7.45;;;;;;;-0.57;96.87;100414.91;5174993;28;20064;-72
2024/01/19 06:35:15;;;;;;;13.80;7.32;;;;;;;-0.52;97.05;100417.53;5174221;28;20070;-73
2024/01/19 06:37:46;;;;;;;16.40;7.90;;;;;;;-0.49;96.65;100420.09;5171636;28;20055;-73
2024/01/19 06:40:18;;;;;;;14.68;6.78;;;;;;;-0.50;96.68;100432.09;5173869;28;20041;-74
2024/01/19 06:42:48;;;;;;;17.65;7.10;;;;;;;-0.47;96.81;100437.22;5172024;28;20022;-74
2024/01/19 06:45:18;;;;;;;18.25;7.32;;;;;;;-0.56;96.78;100441.44;5174641;28;20032;-73
2024/01/19 06:47:48;;;;;;;17.17;6.80;;;;;;;-0.62;97.33;100449.09;5172714;28;20574;-73
2024/01/19 06:50:19;;;;;;;14.23;6.80;;;;;;;-0.60;97.21;100455.94;5171588;28;20277;-74
2024/01/19 06:52:50;;;;;;;13.07;6.53;;;;;;;-0.54;97.07;100450.00;5170892;28;20450;-74
2024/01/19 06:55:20;;;;;;;15.70;7.35;;;;;;;-0.50;96.82;100446.59;5173892;28;20018;-73
2024/01/19 06:57:51;;;;;;;17.33;7.25;;;;;;;-0.54;96.52;100458.56;5173996;28;20092;-73
2024/01/19 07:00:21;;;;;;;20.48;7.97;;;;;;;-0.42;96.28;100452.66;5172130;28;20021;-74
2024/01/19 07:02:52;;;;;;;13.90;6.38;;;;;;;-0.53;96.69;100454.28;5171833;28;20129;-73
2024/01/19 07:05:22;;;;;;;13.73;6.10;;;;;;;-0.45;96.91;100455.19;5175009;28;20029;-74
2024/01/19 07:07:53;;;;;;;18.88;7.00;;;;;;;-0.55;97.09;100464.53;5174365;28;20030;-73
2024/01/19 07:10:23;;;;;;;13.80;7.15;;;;;;;-0.43;97.10;100454.34;5174600;28;20022;-74
2024/01/19 07:12:53;;;;;;;16.92;6.47;;;;;;;-0.49;97.32;100459.47;5174317;28;20509;-74
2024/01/19 07:15:23;;;;;;;15.00;6.93;;;;;;;-0.42;97.72;100471.47;5168342;28;20073;-74
2024/01/19 07:17:54;;;;;;;14.93;7.07;;;;;;;-0.35;97.40;100477.50;5170857;28;20053;-74
2024/01/19 07:20:24;;;;;;;16.48;6.97;;;;;;;-0.45;97.16;100480.84;5173842;28;20617;-74
2024/01/19 07:22:55;;;;;;;13.65;6.63;;;;;;;-0.31;97.63;100485.25;5170248;28;20030;-74
2024/01/19 07:25:25;;;;;;;15.80;6.72;;;;;;;-0.21;96.69;100497.25;5170199;28;20018;-73
2024/01/19 07:27:55;;;;;;;11.50;6.68;;;;;;;-0.20;97.09;100498.97;5171911;28;20100;-74
2024/01/19 07:30:25;;;;;;;15.32;7.25;;;;;;;-0.22;97.36;100499.84;5174537;28;20117;-74
2024/01/19 07:32:56;;;;;;;15.02;6.43;;;;;;;-0.16;96.92;100513.56;5173043;28;20115;-75
2024/01/19 07:35:26;;;;;;;15.45;6.85;;;;;;;-0.07;96.60;100510.19;5174720;28;20328;-74
2024/01/19 07:37:56;;;;;;;16.40;7.55;;;;;;;-0.09;96.13;100509.31;5172965;28;20654;-74
2024/01/19 07:40:27;;;;;;;15.23;6.95;;;;;;;-0.06;97.04;100512.75;5175081;28;20121;-74
2024/01/19 07:42:57;;;;;;;18.15;6.90;;;;;;;-0.05;96.39;100518.78;5174561;28;20033;-73
2024/01/19 07:45:27;;;;;;;13.35;6.45;;;;;;;-0.03;96.89;100521.34;5172381;28;20061;-74
2024/01/19 07:47:58;;;;;;;15.10;7.25;;;;;;;0.15;95.95;100524.00;5173210;28;20021;-73
2024/01/19 07:50:28;;;;;;;19.17;7.93;;;;;;;0.12;96.56;100539.41;5175699;28;20030;-74
2024/01/19 07:52:58;;;;;;;16.33;6.97;;;;;;;0.25;96.30;100541.19;5173791;28;20199;-74
2024/01/19 07:55:28;;;;;;;12.30;7.05;;;;;;;0.25;96.30;100543.75;5173777;28;20037;-74
2024/01/19 07:58:01;;;;;;;13.82;7.35;;;;;;;0.33;95.81;100552.38;5173474;28;20060;-73
2024/01/19 08:00:31;;;;;;;17.92;7.80;;;;;;;0.36;95.79;100565.22;5175428;28;20116;-74
2024/01/19 08:03:02;;;;;;;14.60;7.15;;;;;;;0.47;96.01;100561.00;5173639;28;20108;-74
2024/01/19 08:05:32;;;;;;;14.52;6.90;;;;;;;0.46;96.58;100551.56;5173523;28;20061;-75
2024/01/19 08:08:03;;;;;;;14.45;7.70;;;;;;;0.68;96.19;100555.94;5173195;28;20105;-75
2024/01/19 08:10:35;;;;;;;19.80;7.65;;;;;;;1.21;93.79;100556.94;5175519;28;20061;-74
2024/01/19 08:13:05;;;;;;;13.65;7.20;;;;;;;1.93;91.14;100557.78;5173063;28;20037;-74
2024/01/19 08:15:35;;;;;;;12.82;6.82;;;;;;;2.44;87.60;100556.78;5172485;28;20399;-74
2024/01/19 08:18:06;;;;;;;15.55;6.47;;;;;;;3.02;85.41;100566.00;5172703;28;20034;-73
2024/01/19 08:20:36;;;;;;;12.73;6.18;;;;;;;3.56;82.64;100557.91;5168667;28;20038;-74
2024/01/19 08:23:06;;;;;;;12.80;5.72;;;;;;;3.30;81.14;100571.00;5176091;28;20069;-74
2024/01/19 08:25:37;;;;;;;11.90;5.65;;;;;;;3.93;81.74;100571.34;5174523;28;20076;-74
2024/01/19 08:28:07;;;;;;;9.60;4.85;;;;;;;3.75;77.16;100581.84;5172783;28;20284;-75
2024/01/19 08:30:37;;;;;;;11.43;5.68;;;;;;;3.88;79.42;100583.47;5171303;28;20049;-75
2024/01/19 08:33:08;;;;;;;11.02;5.50;;;;;;;4.27;76.47;100587.41;5171876;28;20038;-75
2024/01/19 08:35:39;;;;;;;12.50;5.95;;;;;;;4.81;74.30;100592.81;5173605;28;20121;-74
2024/01/19 08:38:11;;;;;;;12.20;5.40;;;;;;;4.94;74.32;100594.38;5173449;28;20550;-74
2024/01/19 08:40:42;;;;;;;14.77;5.85;;;;;;;5.14;74.60;100596.72;5178906;28;20033;-74
2024/01/19 08:43:12;;;;;;;12.50;5.90;;;;;;;5.18;72.61;100594.03;5178454;28;20029;-74
2024/01/19 08:45:42;;;;;;;10.80;5.32;;;;;;;4.91;74.88;100602.19;5179506;28;20026;-74
2024/01/19 08:48:13;;;;;;;12.30;5.43;;;;;;;5.42;73.77;100598.88;5177193;28;20062;-74
2024/01/19 08:50:44;;;;;;;12.85;5.25;;;;;;;5.05;72.35;100604.59;5176171;28;20022;-74
2024/01/19 08:53:14;;;;;;;11.32;5.82;;;;;;;4.06;75.54;100614.31;5179182;28;20030;-74
2024/01/19 08:55:44;;;;;;;14.60;5.95;;;;;;;3.72;78.72;100622.34;5180550;28;20044;-74
2024/01/19 08:58:15;;;;;;;12.27;6.00;;;;;;;3.15;80.96;100627.00;5177418;28;20017;-74
2024/01/19 09:00:45;;;;;;;13.32;6.90;;;;;;;2.84;82.96;100630.63;5180399;28;20121;-73
2024/01/19 09:03:16;;;;;;;11.48;6.47;;;;;;;2.61;84.76;100635.84;5175954;28;20033;-74
2024/01/19 09:05:46;;;;;;;14.18;6.40;;;;;;;2.47;85.65;100634.19;5178760;28;20805;-73
2024/01/19 09:08:17;;;;;;;15.55;6.38;;;;;;;2.46;85.96;100637.59;5180155;28;20041;-73
2024/01/19 09:10:47;;;;;;;16.40;6.95;;;;;;;2.54;86.37;100638.44;5181106;28;20030;-74
2024/01/19 09:13:17;;;;;;;14.80;7.50;;;;;;;2.69;85.80;100635.81;5179839;28;20132;-74
2024/01/19 09:15:48;;;;;;;12.65;6.35;;;;;;;2.65;86.49;100642.72;5171124;28;20088;-73
2024/01/19 09:18:18;;;;;;;14.07;6.78;;;;;;;2.54;86.71;100647.03;5174951;28;20041;-73
2024/01/19 09:20:48;;;;;;;12.98;6.82;;;;;;;2.35;86.32;100655.66;5178752;28;20041;-73
2024/01/19 09:23:18;;;;;;;13.90;7.20;;;;;;;2.50;86.99;100659.94;5179519;28;20502;-74
2024/01/19 09:25:49;;;;;;;14.10;7.65;;;;;;;2.49;87.34;100663.41;5177722;28;20034;-73
2024/01/19 09:28:19;;;;;;;15.27;8.13;;;;;;;2.57;87.00;100666.81;5179708;28;20286;-74
2024/01/19 09:30:49;;;;;;;11.73;6.75;;;;;;;2.12;88.85;100677.16;5175873;28;20030;-73
2024/01/19 09:33:20;;;;;;;11.50;6.68;;;;;;;2.43;88.43;100678.84;5179387;28;20057;-74
2024/01/19 09:35:50;;;;;;;15.50;7.28;;;;;;;2.24;88.51;100684.91;5180184;28;20079;-74
2024/01/19 09:38:20;;;;;;;12.70;7.00;;;;;;;2.38;88.45;100690.91;5179460;28;20057;-74
2024/01/19 09:41:02;;;;;;;13.75;7.25;;;;;;;2.43;87.86;100697.78;5180424;28;20045;-74
2024/01/19 09:43:34;;;;;;;14.82;6.97;;;;;;;2.34;89.33;100704.66;5178526;28;20018;-74
2024/01/19 09:46:06;;;;;;;14.73;7.28;;;;;;;2.49;88.62;100700.34;5178952;28;20061;-74
2024/01/19 09:48:48;;;;;;;18.42;7.57;;;;;;;2.54;87.99;100703.75;5179993;28;20025;-74
2024/01/19 09:51:20;;;;;;;15.63;7.63;;;;;;;2.47;88.35;100714.13;5177517;28;20026;-74
2024/01/19 09:53:59;;;;;;;14.45;7.30;;;;;;;2.63;87.94;100714.09;5181107;28;20073;-73
2024/01/19 09:56:29;;;;;;;16.38;7.75;;;;;;;2.47;88.46;100714.13;5178016;28;20108;-74
2024/01/19 09:59:00;;;;;;;16.55;7.05;;;;;;;2.51;87.85;100710.66;5177239;28;20022;-74
2024/01/19 10:01:31;;;;;;;14.32;7.22;;;;;;;2.45;87.61;100710.66;5178510;28;20013;-73
2024/01/19 10:04:05;;;;;;;15.48;7.78;;;;;;;2.45;88.02;100719.25;5179199;28;20028;-74
2024/01/19 10:06:36;;;;;;;22.48;8.23;;;;;;;2.59;88.25;100729.56;5180214;28;20053;-74
2024/01/19 10:09:07;;;;;;;19.35;7.88;;;;;;;2.62;87.16;100726.97;5171223;28;20034;-73
2024/01/19 10:11:40;;;;;;;14.02;7.90;;;;;;;2.65;88.36;100727.00;5168312;28;20519;-73
2024/01/19 10:14:10;;;;;;;19.05;8.65;;;;;;;2.39;87.68;100731.28;5168104;28;20040;-74
2024/01/19 10:16:42;;;;;;;17.88;8.43;;;;;;;2.53;88.42;100735.56;5168865;28;20391;-74
2024/01/19 10:19:13;;;;;;;19.23;8.73;;;;;;;2.48;88.02;100734.72;5168056;28;20017;-73
2024/01/19 10:21:43;;;;;;;16.73;8.27;;;;;;;2.54;88.14;100741.59;5172230;28;20395;-74
2024/01/19 10:24:17;;;;;;;18.42;8.75;;;;;;;2.46;88.35;100740.72;5168858;28;20104;-74
2024/01/19 10:26:53;;;;;;;17.65;8.57;;;;;;;2.64;88.01;100745.88;5176610;28;20030;-74
2024/01/19 10:29:23;;;;;;;19.17;8.82;;;;;;;2.48;88.04;100745.03;5170918;28;20479;-73
2024/01/19 10:31:53;;;;;;;18.73;8.85;;;;;;;2.51;87.91;100744.19;5168179;28;20045;-73
2024/01/19 10:34:27;;;;;;;18.08;8.05;;;;;;;2.74;87.55;100763.06;5170089;28;20030;-74
2024/01/19 10:36:58;;;;;;;17.25;8.15;;;;;;;2.64;86.90;100757.06;5173599;28;20034;-74
2024/01/19 10:39:31;;;;;;;14.82;7.78;;;;;;;2.55;87.16;100753.63;5169448;28;20029;-73
2024/01/19 10:42:08;;;;;;;21.05;8.02;;;;;;;2.52;87.22;100758.81;5166863;28;20054;-72
2024/01/19 10:44:39;;;;;;;19.33;8.25;;;;;;;2.63;86.97;100769.94;5169937;28;20034;-74
2024/01/19 10:47:09;;;;;;;18.27;8.13;;;;;;;2.65;86.97;100778.59;5169486;28;20506;-73
2024/01/19 10:49:39;;;;;;;16.70;8.15;;;;;;;2.62;86.80;100774.28;5171537;28;20523;-73
2024/01/19 10:52:10;;;;;;;25.55;10.40;;;;;;;2.59;87.10;100779.44;5169275;28;20053;-73
2024/01/19 10:54:40;;;;;;;18.58;8.20;;;;;;;2.67;87.14;100782.84;5189305;28;20084;-73
2024/01/19 10:57:14;;;;;;;19.60;8.07;;;;;;;2.73;86.63;100790.63;5171569;28;20104;-73
2024/01/19 10:59:44;;;;;;;19.98;8.40;;;;;;;2.69;87.57;100788.88;5174020;28;20040;-74
2024/01/19 11:02:15;;;;;;;21.13;8.73;;;;;;;2.56;87.03;100789.75;5171413;28;20029;-74
2024/01/19 11:04:45;;;;;;;20.73;9.35;;;;;;;2.65;86.84;100794.06;5174209;28;20080;-74
2024/01/19 11:07:15;;;;;;;19.80;8.02;;;;;;;2.63;87.25;100785.44;5167747;28;20030;-73
2024/01/19 11:09:46;;;;;;;18.48;8.98;;;;;;;2.72;87.29;100796.59;5167525;28;20479;-74
2024/01/19 11:12:18;;;;;;;19.38;8.80;;;;;;;2.67;86.79;100785.44;5173379;28;20031;-74
2024/01/19 11:14:52;;;;;;;19.20;8.27;;;;;;;2.59;86.70;100779.44;5166970;28;20113;-74
2024/01/19 11:17:23;;;;;;;25.77;8.55;;;;;;;2.54;86.89;100786.28;5171870;28;20109;-74
2024/01/19 11:19:53;;;;;;;24.13;7.95;;;;;;;2.57;87.37;100788.03;5172530;28;20120;-74
2024/01/19 11:22:25;;;;;;;22.20;9.32;;;;;;;2.67;87.04;100789.75;5176435;28;20064;-74
2024/01/19 11:25:01;;;;;;;23.48;8.98;;;;;;;2.66;86.54;100785.47;5169587;28;20479;-73
2024/01/19 11:27:53;;;;;;;20.42;7.93;;;;;;;2.59;86.94;100794.03;5169631;28;20030;-74
2024/01/19 11:30:39;;;;;;;19.60;8.10;;;;;;;2.67;86.87;100792.34;5167409;28;20026;-74
2024/01/19 11:33:19;;;;;;;20.45;8.70;;;;;;;2.54;86.69;100791.44;5168508;28;20507;-74
2024/01/19 11:35:49;;;;;;;21.83;8.85;;;;;;;2.50;87.47;100787.16;5168009;28;20030;-74
2024/01/19 11:38:38;;;;;;;22.17;8.15;;;;;;;2.67;87.15;100789.75;5171010;28;20284;-74